sensor_id;sensor_type;location;lat;lon;timestamp;temperature;humidity
15426;DHT22;7812;50.072;7.036;2023-04-01T00:00:07;8.90;99.90
15426;DHT22;7812;50.072;7.036;2023-04-01T00:02:35;8.90;99.90
15426;DHT22;7812;50.072;7.036;2023-04-01T00:05:00;8.90;99.90
15426;DHT22;7812;50.072;7.036;2023-04-01T00:07:27;8.90;99.90
15426;DHT22;7812;50.072;7.036;2023-04-01T00:09:53;8.90;99.90
15426;DHT22;7812;50.072;7.036;2023-04-01T00:12:18;8.90;99.90
15426;DHT22;7812;50.072;7.036;2023-04-01T00:14:44;8.90;99.90
15426;DHT22;7812;50.072;7.036;2023-04-01T00:17:10;8.90;99.90
15426;DHT22;7812;50.072;7.036;2023-04-01T00:19:36;8.90;99.90
15426;DHT22;7812;50.072;7.036;2023-04-01T00:22:02;8.90;99.90
15426;DHT22;7812;50.072;7.036;2023-04-01T00:24:29;8.90;99.90
15426;DHT22;7812;50.072;7.036;2023-04-01T00:26:55;8.90;99.90
15426;DHT22;7812;50.072;7.036;2023-04-01T00:29:20;8.90;99.90
15426;DHT22;7812;50.072;7.036;2023-04-01T00:31:46;8.90;99.90
15426;DHT22;7812;50.072;7.036;2023-04-01T00:34:13;8.90;99.90
15426;DHT22;7812;50.072;7.036;2023-04-01T00:36:39;8.80;99.90
15426;DHT22;7812;50.072;7.036;2023-04-01T00:39:05;8.80;99.90
15426;DHT22;7812;50.072;7.036;2023-04-01T00:41:30;8.80;99.90
15426;DHT22;7812;50.072;7.036;2023-04-01T00:46:48;8.80;99.90
15426;DHT22;7812;50.072;7.036;2023-04-01T00:49:16;8.80;99.90
15426;DHT22;7812;50.072;7.036;2023-04-01T00:51:43;8.80;99.90
15426;DHT22;7812;50.072;7.036;2023-04-01T00:54:12;8.70;99.90
15426;DHT22;7812;50.072;7.036;2023-04-01T00:59:35;8.70;99.90
15426;DHT22;7812;50.072;7.036;2023-04-01T01:02:04;8.80;99.90
15426;DHT22;7812;50.072;7.036;2023-04-01T01:04:33;8.80;99.90
15426;DHT22;7812;50.072;7.036;2023-04-01T01:15:19;8.70;99.90
15426;DHT22;7812;50.072;7.036;2023-04-01T01:25:46;8.70;99.90
15426;DHT22;7812;50.072;7.036;2023-04-01T01:34:45;8.70;99.90
15426;DHT22;7812;50.072;7.036;2023-04-01T01:37:16;8.60;99.90
15426;DHT22;7812;50.072;7.036;2023-04-01T01:39:44;8.70;99.90
15426;DHT22;7812;50.072;7.036;2023-04-01T01:42:14;8.60;99.90
15426;DHT22;7812;50.072;7.036;2023-04-01T01:44:43;8.60;99.90
15426;DHT22;7812;50.072;7.036;2023-04-01T01:47:10;8.60;99.90
15426;DHT22;7812;50.072;7.036;2023-04-01T01:49:39;8.60;99.90
15426;DHT22;7812;50.072;7.036;2023-04-01T01:52:06;8.60;99.90
15426;DHT22;7812;50.072;7.036;2023-04-01T01:54:31;8.60;99.90
15426;DHT22;7812;50.072;7.036;2023-04-01T01:57:06;8.60;99.90
15426;DHT22;7812;50.072;7.036;2023-04-01T01:59:35;8.60;99.90
15426;DHT22;7812;50.072;7.036;2023-04-01T02:02:03;8.60;99.90
15426;DHT22;7812;50.072;7.036;2023-04-01T02:04:40;8.60;99.90
15426;DHT22;7812;50.072;7.036;2023-04-01T02:07:22;8.60;99.90
15426;DHT22;7812;50.072;7.036;2023-04-01T02:09:49;8.60;99.90
15426;DHT22;7812;50.072;7.036;2023-04-01T02:12:16;8.60;99.90
15426;DHT22;7812;50.072;7.036;2023-04-01T02:14:54;8.60;99.90
15426;DHT22;7812;50.072;7.036;2023-04-01T02:17:24;8.60;99.90
15426;DHT22;7812;50.072;7.036;2023-04-01T02:19:59;8.60;99.90
15426;DHT22;7812;50.072;7.036;2023-04-01T02:22:31;8.60;99.90
15426;DHT22;7812;50.072;7.036;2023-04-01T02:25:02;8.50;99.90
15426;DHT22;7812;50.072;7.036;2023-04-01T02:27:31;8.60;99.90
15426;DHT22;7812;50.072;7.036;2023-04-01T02:29:57;8.50;99.90
15426;DHT22;7812;50.072;7.036;2023-04-01T02:32:23;8.60;99.90
15426;DHT22;7812;50.072;7.036;2023-04-01T02:34:50;8.60;99.90
15426;DHT22;7812;50.072;7.036;2023-04-01T02:37:17;8.60;99.90
15426;DHT22;7812;50.072;7.036;2023-04-01T02:39:43;8.60;99.90
15426;DHT22;7812;50.072;7.036;2023-04-01T02:42:08;8.60;99.90
15426;DHT22;7812;50.072;7.036;2023-04-01T02:44:34;8.50;99.90
15426;DHT22;7812;50.072;7.036;2023-04-01T02:47:00;8.50;99.90
15426;DHT22;7812;50.072;7.036;2023-04-01T02:49:26;8.50;99.90
15426;DHT22;7812;50.072;7.036;2023-04-01T02:51:51;8.60;99.90
15426;DHT22;7812;50.072;7.036;2023-04-01T02:54:18;8.50;99.90
15426;DHT22;7812;50.072;7.036;2023-04-01T02:56:44;8.50;99.90
15426;DHT22;7812;50.072;7.036;2023-04-01T02:59:10;8.50;99.90
15426;DHT22;7812;50.072;7.036;2023-04-01T03:01:36;8.50;99.90
15426;DHT22;7812;50.072;7.036;2023-04-01T03:04:02;8.40;99.90
15426;DHT22;7812;50.072;7.036;2023-04-01T03:06:28;8.40;99.90
15426;DHT22;7812;50.072;7.036;2023-04-01T03:08:53;8.40;99.90
15426;DHT22;7812;50.072;7.036;2023-04-01T03:11:19;8.40;99.90
15426;DHT22;7812;50.072;7.036;2023-04-01T03:13:46;8.50;99.90
15426;DHT22;7812;50.072;7.036;2023-04-01T03:16:12;8.40;99.90
15426;DHT22;7812;50.072;7.036;2023-04-01T03:18:38;8.40;99.90
15426;DHT22;7812;50.072;7.036;2023-04-01T03:21:21;8.40;99.90
15426;DHT22;7812;50.072;7.036;2023-04-01T03:23:47;8.40;99.90
15426;DHT22;7812;50.072;7.036;2023-04-01T03:26:13;8.40;99.90
15426;DHT22;7812;50.072;7.036;2023-04-01T03:28:39;8.40;99.90
15426;DHT22;7812;50.072;7.036;2023-04-01T03:31:05;8.40;99.90
15426;DHT22;7812;50.072;7.036;2023-04-01T03:33:31;8.40;99.90
15426;DHT22;7812;50.072;7.036;2023-04-01T03:35:57;8.40;99.90
15426;DHT22;7812;50.072;7.036;2023-04-01T03:38:23;8.40;99.90
15426;DHT22;7812;50.072;7.036;2023-04-01T03:40:48;8.40;99.90
15426;DHT22;7812;50.072;7.036;2023-04-01T03:43:14;8.40;99.90
15426;DHT22;7812;50.072;7.036;2023-04-01T03:45:50;8.30;99.90
15426;DHT22;7812;50.072;7.036;2023-04-01T03:48:16;8.40;99.90
15426;DHT22;7812;50.072;7.036;2023-04-01T03:50:42;8.30;99.90
15426;DHT22;7812;50.072;7.036;2023-04-01T03:53:08;8.40;99.90
15426;DHT22;7812;50.072;7.036;2023-04-01T03:55:36;8.30;99.90
15426;DHT22;7812;50.072;7.036;2023-04-01T03:58:02;8.40;99.90
15426;DHT22;7812;50.072;7.036;2023-04-01T04:00:31;8.40;99.90
15426;DHT22;7812;50.072;7.036;2023-04-01T04:02:57;8.40;99.90
15426;DHT22;7812;50.072;7.036;2023-04-01T04:05:24;8.40;99.90
15426;DHT22;7812;50.072;7.036;2023-04-01T04:07:50;8.40;99.90
15426;DHT22;7812;50.072;7.036;2023-04-01T04:10:16;8.40;99.90
15426;DHT22;7812;50.072;7.036;2023-04-01T04:12:42;8.40;99.90
15426;DHT22;7812;50.072;7.036;2023-04-01T04:15:08;8.30;99.90
15426;DHT22;7812;50.072;7.036;2023-04-01T04:17:34;8.30;99.90
15426;DHT22;7812;50.072;7.036;2023-04-01T04:20:01;8.30;99.90
15426;DHT22;7812;50.072;7.036;2023-04-01T04:22:26;8.30;99.90
15426;DHT22;7812;50.072;7.036;2023-04-01T04:24:52;8.30;99.90
15426;DHT22;7812;50.072;7.036;2023-04-01T04:27:18;8.40;99.90
15426;DHT22;7812;50.072;7.036;2023-04-01T04:29:56;8.30;99.90
15426;DHT22;7812;50.072;7.036;2023-04-01T04:32:21;8.40;99.90
15426;DHT22;7812;50.072;7.036;2023-04-01T04:34:47;8.40;99.90
15426;DHT22;7812;50.072;7.036;2023-04-01T04:37:13;8.30;99.90
15426;DHT22;7812;50.072;7.036;2023-04-01T04:39:38;8.30;99.90
15426;DHT22;7812;50.072;7.036;2023-04-01T04:42:05;8.40;99.90
15426;DHT22;7812;50.072;7.036;2023-04-01T04:44:31;8.40;99.90
15426;DHT22;7812;50.072;7.036;2023-04-01T04:46:56;8.40;99.90
15426;DHT22;7812;50.072;7.036;2023-04-01T04:49:22;8.40;99.90
15426;DHT22;7812;50.072;7.036;2023-04-01T04:51:48;8.30;99.90
15426;DHT22;7812;50.072;7.036;2023-04-01T04:54:13;8.30;99.90
15426;DHT22;7812;50.072;7.036;2023-04-01T04:56:39;8.30;99.90
15426;DHT22;7812;50.072;7.036;2023-04-01T04:59:05;8.30;99.90
15426;DHT22;7812;50.072;7.036;2023-04-01T05:01:31;8.30;99.90
15426;DHT22;7812;50.072;7.036;2023-04-01T05:03:59;8.30;99.90
15426;DHT22;7812;50.072;7.036;2023-04-01T05:06:24;8.30;99.90
15426;DHT22;7812;50.072;7.036;2023-04-01T05:08:51;8.30;99.90
15426;DHT22;7812;50.072;7.036;2023-04-01T05:11:18;8.40;99.90
15426;DHT22;7812;50.072;7.036;2023-04-01T05:13:45;8.30;99.90
15426;DHT22;7812;50.072;7.036;2023-04-01T05:16:16;8.30;99.90
15426;DHT22;7812;50.072;7.036;2023-04-01T05:18:42;8.30;99.90
15426;DHT22;7812;50.072;7.036;2023-04-01T05:21:09;8.40;99.90
15426;DHT22;7812;50.072;7.036;2023-04-01T05:23:36;8.30;99.90
15426;DHT22;7812;50.072;7.036;2023-04-01T05:26:06;8.30;99.90
15426;DHT22;7812;50.072;7.036;2023-04-01T05:28:32;8.30;99.90
15426;DHT22;7812;50.072;7.036;2023-04-01T05:30:59;8.40;99.90
15426;DHT22;7812;50.072;7.036;2023-04-01T05:33:26;8.40;99.90
15426;DHT22;7812;50.072;7.036;2023-04-01T05:35:51;8.30;99.90
15426;DHT22;7812;50.072;7.036;2023-04-01T05:38:17;8.30;99.90
15426;DHT22;7812;50.072;7.036;2023-04-01T05:40:42;8.40;99.90
15426;DHT22;7812;50.072;7.036;2023-04-01T05:43:08;8.40;99.90
15426;DHT22;7812;50.072;7.036;2023-04-01T05:45:34;8.40;99.90
15426;DHT22;7812;50.072;7.036;2023-04-01T05:48:00;8.40;99.90
15426;DHT22;7812;50.072;7.036;2023-04-01T05:50:26;8.40;99.90
15426;DHT22;7812;50.072;7.036;2023-04-01T05:52:52;8.40;99.90
15426;DHT22;7812;50.072;7.036;2023-04-01T05:55:17;8.40;99.90
15426;DHT22;7812;50.072;7.036;2023-04-01T05:57:45;8.40;99.90
15426;DHT22;7812;50.072;7.036;2023-04-01T06:00:11;8.50;99.90
15426;DHT22;7812;50.072;7.036;2023-04-01T06:02:37;8.50;99.90
15426;DHT22;7812;50.072;7.036;2023-04-01T06:05:24;8.50;99.90
15426;DHT22;7812;50.072;7.036;2023-04-01T06:07:58;8.50;99.90
15426;DHT22;7812;50.072;7.036;2023-04-01T06:25:21;8.60;99.90
15426;DHT22;7812;50.072;7.036;2023-04-01T06:36:23;8.90;99.90
15426;DHT22;7812;50.072;7.036;2023-04-01T06:46:41;9.00;99.90
15426;DHT22;7812;50.072;7.036;2023-04-01T06:54:31;8.90;99.90
15426;DHT22;7812;50.072;7.036;2023-04-01T06:57:02;9.00;99.90
15426;DHT22;7812;50.072;7.036;2023-04-01T06:59:34;9.00;99.90
15426;DHT22;7812;50.072;7.036;2023-04-01T07:04:39;9.00;99.90
15426;DHT22;7812;50.072;7.036;2023-04-01T07:07:19;9.10;99.90
15426;DHT22;7812;50.072;7.036;2023-04-01T07:09:54;9.10;99.90
15426;DHT22;7812;50.072;7.036;2023-04-01T07:15:04;9.10;99.90
15426;DHT22;7812;50.072;7.036;2023-04-01T07:17:33;9.10;99.90
15426;DHT22;7812;50.072;7.036;2023-04-01T07:22:48;9.20;99.90
15426;DHT22;7812;50.072;7.036;2023-04-01T07:25:15;9.20;99.90
15426;DHT22;7812;50.072;7.036;2023-04-01T07:27:45;9.20;99.90
15426;DHT22;7812;50.072;7.036;2023-04-01T07:30:18;9.20;99.90
15426;DHT22;7812;50.072;7.036;2023-04-01T07:32:59;9.10;99.90
15426;DHT22;7812;50.072;7.036;2023-04-01T07:35:40;9.10;99.90
15426;DHT22;7812;50.072;7.036;2023-04-01T07:41:45;9.10;99.90
15426;DHT22;7812;50.072;7.036;2023-04-01T07:43:53;9.10;99.90
15426;DHT22;7812;50.072;7.036;2023-04-01T07:46:47;9.10;99.90
15426;DHT22;7812;50.072;7.036;2023-04-01T07:49:22;9.00;99.90
15426;DHT22;7812;50.072;7.036;2023-04-01T07:52:22;9.10;99.90
15426;DHT22;7812;50.072;7.036;2023-04-01T08:03:25;9.20;99.90
15426;DHT22;7812;50.072;7.036;2023-04-01T08:06:33;9.20;99.90
15426;DHT22;7812;50.072;7.036;2023-04-01T08:14:40;9.20;99.90
15426;DHT22;7812;50.072;7.036;2023-04-01T08:17:34;9.30;99.90
15426;DHT22;7812;50.072;7.036;2023-04-01T08:20:28;9.40;99.90
15426;DHT22;7812;50.072;7.036;2023-04-01T08:25:39;9.50;99.90
15426;DHT22;7812;50.072;7.036;2023-04-01T08:33:30;9.70;99.90
15426;DHT22;7812;50.072;7.036;2023-04-01T08:36:02;9.70;99.90
15426;DHT22;7812;50.072;7.036;2023-04-01T09:17:01;10.70;99.90
15426;DHT22;7812;50.072;7.036;2023-04-01T09:25:19;10.50;99.90
15426;DHT22;7812;50.072;7.036;2023-04-01T09:27:57;10.50;99.90
15426;DHT22;7812;50.072;7.036;2023-04-01T09:33:03;10.70;99.90
15426;DHT22;7812;50.072;7.036;2023-04-01T09:40:56;11.00;99.90
15426;DHT22;7812;50.072;7.036;2023-04-01T09:49:31;11.20;99.90
15426;DHT22;7812;50.072;7.036;2023-04-01T10:28:33;10.50;99.90
15426;DHT22;7812;50.072;7.036;2023-04-01T11:23:04;12.90;99.90
15426;DHT22;7812;50.072;7.036;2023-04-01T11:26:02;13.80;99.90
15426;DHT22;7812;50.072;7.036;2023-04-01T11:28:45;14.20;99.90
15426;DHT22;7812;50.072;7.036;2023-04-01T11:42:18;13.90;99.90
15426;DHT22;7812;50.072;7.036;2023-04-01T11:51:10;14.30;99.90
15426;DHT22;7812;50.072;7.036;2023-04-01T11:59:49;14.00;99.90
15426;DHT22;7812;50.072;7.036;2023-04-01T12:13:35;13.20;99.90
15426;DHT22;7812;50.072;7.036;2023-04-01T12:16:36;13.10;99.90
15426;DHT22;7812;50.072;7.036;2023-04-01T12:28:06;12.90;99.90
15426;DHT22;7812;50.072;7.036;2023-04-01T12:41:33;12.90;99.90
15426;DHT22;7812;50.072;7.036;2023-04-01T12:47:23;12.70;99.90
15426;DHT22;7812;50.072;7.036;2023-04-01T12:50:14;12.60;99.90
15426;DHT22;7812;50.072;7.036;2023-04-01T12:58:06;11.80;99.90
15426;DHT22;7812;50.072;7.036;2023-04-01T13:09:01;11.60;99.90
15426;DHT22;7812;50.072;7.036;2023-04-01T13:11:40;11.50;99.90
15426;DHT22;7812;50.072;7.036;2023-04-01T13:17:20;11.30;99.90
15426;DHT22;7812;50.072;7.036;2023-04-01T13:25:14;11.70;99.90
15426;DHT22;7812;50.072;7.036;2023-04-01T13:27:49;12.00;99.90
15426;DHT22;7812;50.072;7.036;2023-04-01T13:44:18;12.70;99.90
15426;DHT22;7812;50.072;7.036;2023-04-01T13:49:53;13.30;99.90
15426;DHT22;7812;50.072;7.036;2023-04-01T13:55:26;12.70;99.90
15426;DHT22;7812;50.072;7.036;2023-04-01T14:03:26;11.80;99.90
15426;DHT22;7812;50.072;7.036;2023-04-01T14:06:11;11.60;99.90
15426;DHT22;7812;50.072;7.036;2023-04-01T14:51:32;11.20;99.90
15426;DHT22;7812;50.072;7.036;2023-04-01T14:59:25;11.10;99.90
15426;DHT22;7812;50.072;7.036;2023-04-01T15:10:43;11.00;99.90
15426;DHT22;7812;50.072;7.036;2023-04-01T15:30:44;10.90;99.90
15426;DHT22;7812;50.072;7.036;2023-04-01T15:48:17;10.40;99.90
15426;DHT22;7812;50.072;7.036;2023-04-01T15:53:16;10.30;99.90
15426;DHT22;7812;50.072;7.036;2023-04-01T16:09:42;10.40;99.90
15426;DHT22;7812;50.072;7.036;2023-04-01T16:12:27;10.40;99.90
15426;DHT22;7812;50.072;7.036;2023-04-01T16:20:53;10.40;99.90
15426;DHT22;7812;50.072;7.036;2023-04-01T16:23:46;10.30;99.90
15426;DHT22;7812;50.072;7.036;2023-04-01T16:37:45;10.10;99.90
15426;DHT22;7812;50.072;7.036;2023-04-01T16:40:40;10.00;99.90
15426;DHT22;7812;50.072;7.036;2023-04-01T16:43:19;9.90;99.90
15426;DHT22;7812;50.072;7.036;2023-04-01T16:48:59;9.90;99.90
15426;DHT22;7812;50.072;7.036;2023-04-01T17:03:03;9.90;99.90
15426;DHT22;7812;50.072;7.036;2023-04-01T17:05:41;10.00;99.90
15426;DHT22;7812;50.072;7.036;2023-04-01T17:08:22;9.90;99.90
15426;DHT22;7812;50.072;7.036;2023-04-01T17:10:59;9.90;99.90
15426;DHT22;7812;50.072;7.036;2023-04-01T17:24:47;9.80;99.90
15426;DHT22;7812;50.072;7.036;2023-04-01T17:27:31;9.80;99.90
15426;DHT22;7812;50.072;7.036;2023-04-01T17:38:47;9.70;99.90
15426;DHT22;7812;50.072;7.036;2023-04-01T17:58:03;9.80;99.90
15426;DHT22;7812;50.072;7.036;2023-04-01T18:00:38;9.80;99.90
15426;DHT22;7812;50.072;7.036;2023-04-01T18:03:24;9.90;99.90
15426;DHT22;7812;50.072;7.036;2023-04-01T18:12:43;9.80;99.90
15426;DHT22;7812;50.072;7.036;2023-04-01T18:23:36;9.90;99.90
15426;DHT22;7812;50.072;7.036;2023-04-01T18:26:20;9.90;99.90
15426;DHT22;7812;50.072;7.036;2023-04-01T18:29:14;10.00;99.90
15426;DHT22;7812;50.072;7.036;2023-04-01T18:32:00;10.00;99.90
15426;DHT22;7812;50.072;7.036;2023-04-01T18:40:00;10.00;99.90
15426;DHT22;7812;50.072;7.036;2023-04-01T18:42:33;9.90;99.90
15426;DHT22;7812;50.072;7.036;2023-04-01T18:47:38;9.70;99.90
15426;DHT22;7812;50.072;7.036;2023-04-01T18:50:36;9.70;99.90
15426;DHT22;7812;50.072;7.036;2023-04-01T18:55:58;9.70;99.90
15426;DHT22;7812;50.072;7.036;2023-04-01T19:01:12;9.60;99.90
15426;DHT22;7812;50.072;7.036;2023-04-01T19:03:54;9.50;99.90
15426;DHT22;7812;50.072;7.036;2023-04-01T19:06:35;9.50;99.90
15426;DHT22;7812;50.072;7.036;2023-04-01T19:17:48;9.40;99.90
15426;DHT22;7812;50.072;7.036;2023-04-01T19:20:29;9.40;99.90
15426;DHT22;7812;50.072;7.036;2023-04-01T19:25:48;9.20;99.90
15426;DHT22;7812;50.072;7.036;2023-04-01T19:45:22;9.00;99.90
15426;DHT22;7812;50.072;7.036;2023-04-01T20:01:56;8.80;99.90
15426;DHT22;7812;50.072;7.036;2023-04-01T20:12:25;8.80;99.90
15426;DHT22;7812;50.072;7.036;2023-04-01T20:14:57;8.90;99.90
15426;DHT22;7812;50.072;7.036;2023-04-01T20:17:44;8.80;99.90
15426;DHT22;7812;50.072;7.036;2023-04-01T20:23:16;8.90;99.90
15426;DHT22;7812;50.072;7.036;2023-04-01T20:25:52;8.90;99.90
15426;DHT22;7812;50.072;7.036;2023-04-01T20:41:28;8.80;99.90
15426;DHT22;7812;50.072;7.036;2023-04-01T20:44:15;8.70;99.90
15426;DHT22;7812;50.072;7.036;2023-04-01T20:52:32;8.70;99.90
15426;DHT22;7812;50.072;7.036;2023-04-01T21:00:54;8.80;99.90
15426;DHT22;7812;50.072;7.036;2023-04-01T21:12:11;8.90;99.90
15426;DHT22;7812;50.072;7.036;2023-04-01T21:26:30;8.90;99.90
15426;DHT22;7812;50.072;7.036;2023-04-01T21:29:11;8.90;99.90
15426;DHT22;7812;50.072;7.036;2023-04-01T21:32:05;8.80;99.90
15426;DHT22;7812;50.072;7.036;2023-04-01T21:56:08;8.70;99.90
15426;DHT22;7812;50.072;7.036;2023-04-01T21:58:50;8.70;99.90
15426;DHT22;7812;50.072;7.036;2023-04-01T22:06:40;8.50;99.90
15426;DHT22;7812;50.072;7.036;2023-04-01T22:09:11;8.60;99.90
15426;DHT22;7812;50.072;7.036;2023-04-01T22:14:31;8.50;99.90
15426;DHT22;7812;50.072;7.036;2023-04-01T22:17:16;8.40;99.90
15426;DHT22;7812;50.072;7.036;2023-04-01T22:31:12;8.30;99.90
15426;DHT22;7812;50.072;7.036;2023-04-01T22:33:57;8.40;99.90
15426;DHT22;7812;50.072;7.036;2023-04-01T22:39:50;8.50;99.90
15426;DHT22;7812;50.072;7.036;2023-04-01T22:52:43;8.40;99.90
15426;DHT22;7812;50.072;7.036;2023-04-01T22:55:25;8.40;99.90
15426;DHT22;7812;50.072;7.036;2023-04-01T22:57:57;8.40;99.90
15426;DHT22;7812;50.072;7.036;2023-04-01T23:00:47;8.40;99.90
15426;DHT22;7812;50.072;7.036;2023-04-01T23:05:53;8.50;99.90
15426;DHT22;7812;50.072;7.036;2023-04-01T23:08:53;8.40;99.90
15426;DHT22;7812;50.072;7.036;2023-04-01T23:17:25;8.30;99.90
15426;DHT22;7812;50.072;7.036;2023-04-01T23:22:35;8.30;99.90
15426;DHT22;7812;50.072;7.036;2023-04-01T23:38:39;8.40;99.90
15426;DHT22;7812;50.072;7.036;2023-04-01T23:41:09;8.40;99.90
15426;DHT22;7812;50.072;7.036;2023-04-01T23:43:43;8.40;99.90
15426;DHT22;7812;50.072;7.036;2023-04-01T23:46:12;8.40;99.90
15426;DHT22;7812;50.072;7.036;2023-04-01T23:48:40;8.40;99.90
15426;DHT22;7812;50.072;7.036;2023-04-01T23:51:25;8.20;99.90
15426;DHT22;7812;50.072;7.036;2023-04-01T23:54:03;8.20;99.90
15426;DHT22;7812;50.072;7.036;2023-04-01T23:56:40;8.20;99.90
15426;DHT22;7812;50.072;7.036;2023-04-01T23:59:16;8.30;99.90
